Terminal Aerodrome Forecast
Issued by NWS

Home | Current Version | Previous Version | Text Only | Print | Product List | Glossary On
Versions: 1 2 3 4 5 6 7 8 9 10 11 12 13 14 15 16 17
350
FTUS43 KMQT 261734 AAC
TAFIWD
TAF AMD
KIWD 261734Z 2618/2718 33009KT P6SM FEW035
     FM262200 35004KT P6SM SCT130
     FM270000 08003KT P6SM SCT200
     FM270800 16005KT P6SM BKN200
      AMD LTD TO CLD VIS AND WIND=

USA.gov is the U.S. government's official web portal to all federal, state and local government web resources and services.